Time;durP1;ratioP1;P1;durP2;ratioP2;P2;SDS_P1;SDS_P2;PMS_P1;PMS_P2;Temp;Humidity;BMP_temperature;BMP_pressure;BME280_temperature;BME280_humidity;BME280_pressure;Samples;Min_cycle;Max_cycle;Signal;HPM_P1;HPM_P2
2022/08/17 00:09:58;;;;;;;18.30;12.10;;;;;;;19.31;74.74;98912.19;430936;1271;147081;-62
2022/08/17 00:20:06;;;;;;;12.60;10.90;;;;;;;19.23;75.21;98917.10;429466;1271;141954;-62
2022/08/17 00:30:14;;;;;;;11.80;9.80;;;;;;;19.11;75.04;98917.08;431833;1271;185001;-62
2022/08/17 00:40:21;;;;;;;17.80;12.60;;;;;;;19.04;75.80;98913.16;430801;1271;141803;-63
2022/08/17 00:50:29;;;;;;;11.90;10.80;;;;;;;18.94;76.06;98915.08;430515;1271;197446;-62
2022/08/17 01:00:39;;;;;;;13.60;11.50;;;;;;;18.84;76.54;98908.74;431820;1271;142887;-64
2022/08/17 01:10:47;;;;;;;11.60;10.60;;;;;;;18.76;76.74;98910.15;430571;1271;147603;-62
2022/08/17 01:21:10;;;;;;;15.30;13.40;;;;;;;18.71;77.17;98912.69;430482;1271;213551;-62
2022/08/17 01:31:16;;;;;;;13.20;11.60;;;;;;;18.75;78.01;98915.28;432193;1271;144067;-64
2022/08/17 01:41:24;;;;;;;15.00;11.00;;;;;;;18.66;77.88;98915.29;431640;1271;147108;-62
2022/08/17 01:51:32;;;;;;;22.90;12.80;;;;;;;18.55;78.03;98917.41;430484;1271;147197;-62
2022/08/17 02:01:38;;;;;;;11.50;10.40;;;;;;;18.47;78.13;98915.05;430545;1271;143744;-61
2022/08/17 02:11:45;;;;;;;17.00;12.30;;;;;;;18.41;78.21;98919.45;429479;1271;217274;-63
2022/08/17 02:21:53;;;;;;;13.10;10.30;;;;;;;18.32;78.43;98916.65;430737;1272;142136;-63
2022/08/17 02:31:58;;;;;;;;;;;;;;;18.24;78.48;98906.02;430650;1271;142289;-61
2022/08/17 02:42:05;;;;;;;14.70;11.10;;;;;;;18.15;78.54;98904.61;431411;1271;133076;-62
2022/08/17 02:52:11;;;;;;;11.50;10.30;;;;;;;18.07;78.70;98907.73;430139;1270;148258;-64
2022/08/17 03:02:17;;;;;;;13.40;11.30;;;;;;;18.04;78.95;98911.81;429285;1271;144756;-62
2022/08/17 03:12:23;;;;;;;18.60;11.60;;;;;;;17.98;78.74;98913.28;430753;1271;143234;-61
2022/08/17 03:22:30;;;;;;;17.80;11.00;;;;;;;17.94;78.94;98910.73;430300;1271;143466;-62
2022/08/17 03:32:44;;;;;;;15.10;11.60;;;;;;;17.91;79.15;98911.75;430165;1271;142446;-62
2022/08/17 03:42:52;;;;;;;19.50;12.10;;;;;;;17.93;79.52;98916.83;431116;1271;143504;-61
2022/08/17 04:03:21;;;;;;;17.30;12.60;;;;;;;18.26;79.61;98933.35;430305;1271;142660;-61
2022/08/17 04:13:27;;;;;;;14.80;11.50;;;;;;;18.61;79.77;98951.83;429657;1271;141483;-61
2022/08/17 04:23:35;;;;;;;13.80;11.20;;;;;;;18.99;79.02;98955.00;431923;1271;147240;-61
2022/08/17 04:33:42;;;;;;;15.70;10.90;;;;;;;19.48;78.11;98962.09;430540;1271;147162;-62
2022/08/17 04:43:53;;;;;;;13.20;11.90;;;;;;;20.10;77.54;98974.25;432319;1271;152359;-61
2022/08/17 04:54:01;;;;;;;10.80;9.70;;;;;;;20.80;76.72;98984.67;432246;1271;142156;-62
2022/08/17 05:04:10;;;;;;;13.10;9.50;;;;;;;21.58;75.27;98988.23;430726;1271;142574;-62
2022/08/17 05:14:38;;;;;;;20.30;11.90;;;;;;;23.97;73.66;98990.92;429521;1271;142426;-62
2022/08/17 05:24:43;;;;;;;15.60;10.70;;;;;;;28.42;65.70;98992.77;430122;1271;143783;-62
2022/08/17 05:34:58;;;;;;;18.60;10.50;;;;;;;27.48;62.91;98997.23;431836;1271;144617;-62
2022/08/17 05:45:06;;;;;;;12.50;10.60;;;;;;;26.99;63.07;98995.80;431263;1270;142219;-61
2022/08/17 05:55:14;;;;;;;;;;;;;;;27.03;62.53;99001.92;430854;1271;188418;-62
2022/08/17 06:05:40;;;;;;;12.60;10.10;;;;;;;27.39;62.46;98999.99;429561;1271;128592;-63
2022/08/17 06:15:56;;;;;;;19.20;10.50;;;;;;;34.30;56.07;99005.94;430351;1271;186067;-62
2022/08/17 06:26:08;;;;;;;13.50;9.60;;;;;;;40.94;46.08;99011.90;429786;1271;146279;-62
2022/08/17 06:36:29;;;;;;;15.40;9.50;;;;;;;45.39;37.93;99010.38;428648;1271;1657043;-62
2022/08/17 06:46:38;;;;;;;10.90;6.90;;;;;;;48.57;32.10;99002.86;430822;1271;142431;-61
2022/08/17 06:56:48;;;;;;;11.50;6.00;;;;;;;49.67;27.85;99007.02;429588;1271;145642;-61
2022/08/17 07:08:00;;;;;;;12.40;7.30;;;;;;;49.85;25.50;99003.58;430141;1271;141576;-61
2022/08/17 07:17:28;;;;;;;14.00;6.90;;;;;;;51.38;23.72;99002.20;429585;1271;141865;-61
2022/08/17 07:27:55;;;;;;;12.80;7.60;;;;;;;51.22;22.24;98997.64;430150;1271;141888;-61
2022/08/17 07:38:13;;;;;;;8.20;7.40;;;;;;;50.94;21.42;99003.49;446736;1271;141984;-66
2022/08/17 07:48:34;;;;;;;9.30;7.30;;;;;;;52.03;20.62;99011.23;447361;1271;142756;-63
2022/08/17 07:58:41;;;;;;;9.60;8.50;;;;;;;52.75;19.50;99016.06;447294;1271;141989;-62
2022/08/17 08:08:53;;;;;;;9.80;8.40;;;;;;;52.97;19.18;99011.20;447038;1271;141901;-61
2022/08/17 08:19:01;;;;;;;6.60;6.10;;;;;;;52.86;18.30;99013.60;445416;1272;142141;-61
2022/08/17 08:29:17;;;;;;;8.70;5.40;;;;;;;51.46;18.33;99012.02;446722;1271;160586;-60
2022/08/17 08:39:30;;;;;;;6.50;5.30;;;;;;;45.31;21.12;99005.65;447487;1271;145114;-62
2022/08/17 08:49:55;;;;;;;7.70;5.90;;;;;;;38.56;26.18;99010.52;447596;1271;142043;-61
2022/08/17 09:00:14;;;;;;;7.60;6.80;;;;;;;35.64;30.02;99009.13;447338;1271;141488;-62
2022/08/17 09:10:25;;;;;;;8.30;6.80;;;;;;;34.54;31.84;99017.45;447464;1271;143321;-62
2022/08/17 09:20:39;;;;;;;10.80;7.40;;;;;;;33.85;33.27;99010.18;446677;1271;141793;-61
2022/08/17 09:30:47;;;;;;;9.60;8.70;;;;;;;33.37;34.47;99008.98;447425;1271;142211;-62
2022/08/17 09:41:01;;;;;;;8.60;7.50;;;;;;;33.17;34.87;99009.77;446718;1271;142401;-62
2022/08/17 09:51:13;;;;;;;9.50;7.30;;;;;;;33.26;34.88;99007.39;447488;1271;143358;-62
2022/08/17 10:01:30;;;;;;;12.30;8.20;;;;;;;32.44;36.18;99010.67;447444;1271;142313;-62
2022/08/17 10:32:53;;;;;;;8.90;8.10;;;;;;;31.97;37.63;99004.81;447482;1271;141854;-61
2022/08/17 10:43:04;;;;;;;9.20;8.40;;;;;;;31.29;38.32;99009.23;447397;1271;143157;-62
2022/08/17 10:53:30;;;;;;;9.50;7.50;;;;;;;31.38;38.77;99013.59;446656;1271;143684;-62
2022/08/17 11:03:36;;;;;;;8.20;7.10;;;;;;;31.30;38.60;99018.61;447575;1271;142792;-61
2022/08/17 11:13:51;;;;;;;9.10;8.20;;;;;;;31.67;38.22;99021.13;447244;1271;144060;-61
2022/08/17 11:24:12;;;;;;;10.30;9.10;;;;;;;31.95;37.95;99015.66;447192;1272;143351;-61
2022/08/17 11:34:25;;;;;;;11.10;8.60;;;;;;;31.20;38.91;99020.36;447390;1271;142825;-62
2022/08/17 11:44:39;;;;;;;9.00;7.60;;;;;;;31.44;38.85;99015.08;446646;1271;142804;-62
2022/08/17 11:54:48;;;;;;;12.10;7.70;;;;;;;31.56;39.06;99007.65;447400;1271;141467;-63
2022/08/17 12:05:12;;;;;;;9.90;8.40;;;;;;;31.30;39.04;99016.02;446634;1271;141840;-63
2022/08/17 12:15:27;;;;;;;14.00;8.60;;;;;;;31.34;38.99;99002.13;447141;1272;143220;-63
2022/08/17 12:25:37;;;;;;;8.40;7.60;;;;;;;31.13;39.26;99006.96;447372;1271;140916;-62
2022/08/17 12:35:46;;;;;;;10.80;8.50;;;;;;;30.63;40.14;99011.68;446651;1271;141197;-63
2022/08/17 12:46:00;;;;;;;12.50;8.20;;;;;;;30.19;40.76;99003.35;447399;1271;142339;-62
2022/08/17 12:56:20;;;;;;;9.10;7.50;;;;;;;30.51;40.18;98991.14;446597;1271;142121;-61
2022/08/17 13:06:31;;;;;;;8.70;7.90;;;;;;;30.68;40.33;98987.52;447431;1271;141661;-61
2022/08/17 13:16:37;;;;;;;11.10;8.30;;;;;;;30.45;40.77;98981.39;447407;1271;141556;-61
2022/08/17 13:26:46;;;;;;;8.10;7.30;;;;;;;30.61;40.44;98986.66;446611;1271;142191;-62
2022/08/17 13:37:13;;;;;;;13.30;9.80;;;;;;;31.38;40.02;98975.50;447385;1271;142677;-62
2022/08/17 13:47:22;;;;;;;10.80;8.40;;;;;;;31.35;39.34;98982.35;446605;1271;141276;-62
2022/08/17 13:57:28;;;;;;;9.40;8.50;;;;;;;31.43;39.28;98984.47;447376;1270;141716;-62
2022/08/17 14:07:35;;;;;;;;;;;;;;;31.68;38.71;98994.60;447387;1271;140679;-62
2022/08/17 14:17:41;;;;;;;12.10;10.30;;;;;;;31.93;38.25;98996.48;446936;1270;129481;-62
2022/08/17 14:27:46;;;;;;;;;;;;;;;31.95;38.35;98991.46;447404;1271;142224;-62
2022/08/17 14:37:58;;;;;;;9.10;8.40;;;;;;;31.54;38.92;98988.45;446877;1271;128748;-62
2022/08/17 14:48:06;;;;;;;16.50;9.40;;;;;;;30.91;39.84;98990.96;447387;1271;145083;-62
2022/08/17 14:58:12;;;;;;;10.20;9.30;;;;;;;30.49;40.98;98994.51;447362;1271;142848;-62
2022/08/17 15:08:18;;;;;;;11.60;10.40;;;;;;;30.25;42.98;98995.59;446595;1271;143909;-62
2022/08/17 15:18:24;;;;;;;12.20;9.10;;;;;;;29.83;44.13;98995.28;447563;1271;142339;-63
2022/08/17 15:28:30;;;;;;;17.00;10.70;;;;;;;29.35;45.38;98996.00;447390;1269;142826;-62
2022/08/17 15:38:38;;;;;;;10.30;9.40;;;;;;;29.11;46.44;98999.84;446653;1271;142640;-62
2022/08/17 15:48:47;;;;;;;10.40;8.80;;;;;;;29.11;46.68;99006.48;447368;1271;141983;-62
2022/08/17 15:58:54;;;;;;;11.80;8.80;;;;;;;29.20;47.04;99009.88;446446;1271;143718;-63
2022/08/17 16:08:59;;;;;;;10.30;9.50;;;;;;;29.14;46.76;99007.09;447384;1271;186604;-63
2022/08/17 16:19:05;;;;;;;12.60;9.80;;;;;;;28.77;47.15;99005.61;447472;1271;142162;-63
2022/08/17 16:29:12;;;;;;;9.90;8.80;;;;;;;28.20;49.03;99015.34;446656;1271;144537;-62
2022/08/17 16:39:18;;;;;;;10.00;9.10;;;;;;;27.84;50.05;99023.87;447441;1270;142737;-62
2022/08/17 16:49:24;;;;;;;9.80;8.80;;;;;;;27.69;50.43;99026.69;447413;1270;142041;-62
2022/08/17 16:59:43;;;;;;;19.20;9.40;;;;;;;27.63;50.78;99025.09;446629;1271;142108;-62
2022/08/17 17:09:54;;;;;;;9.40;8.40;;;;;;;27.55;50.88;99027.16;447369;1271;142074;-63
2022/08/17 17:20:08;;;;;;;12.80;10.00;;;;;;;27.36;51.16;99031.82;446681;1271;141325;-63
2022/08/17 17:30:20;;;;;;;12.00;10.10;;;;;;;27.13;51.61;99036.63;443455;1270;145273;-63
2022/08/17 17:40:32;;;;;;;10.10;9.20;;;;;;;26.86;51.77;99041.13;447103;1272;142328;-63
2022/08/17 17:50:49;;;;;;;10.20;8.80;;;;;;;26.65;52.85;99049.48;446680;1271;141648;-63
2022/08/17 18:01:08;;;;;;;11.40;10.20;;;;;;;26.40;54.20;99053.14;447439;1271;143004;-63
2022/08/17 18:11:29;;;;;;;10.70;9.50;;;;;;;26.05;55.20;99063.21;446634;1271;144001;-63
2022/08/17 18:21:43;;;;;;;10.60;9.50;;;;;;;25.73;55.49;99071.83;447439;1271;142341;-63
2022/08/17 18:31:57;;;;;;;11.60;10.50;;;;;;;25.51;56.60;99077.25;445642;1271;1332762;-63
2022/08/17 18:42:03;;;;;;;13.50;11.10;;;;;;;25.25;57.74;99075.46;447367;1271;143381;-62
2022/08/17 18:52:14;;;;;;;13.70;10.90;;;;;;;25.02;59.28;99079.36;447407;1271;143138;-64
2022/08/17 19:02:25;;;;;;;13.80;12.20;;;;;;;24.83;60.05;99084.12;444971;1271;142783;-63
2022/08/17 19:12:55;;;;;;;14.00;11.40;;;;;;;24.61;60.95;99095.69;433966;1271;148595;-63
2022/08/17 19:23:11;;;;;;;11.40;10.50;;;;;;;24.39;61.76;99106.81;446590;1269;143726;-63
2022/08/17 19:33:18;;;;;;;23.10;14.00;;;;;;;24.21;62.67;99118.61;447481;1271;143094;-64
2022/08/17 19:43:35;;;;;;;22.50;12.70;;;;;;;24.15;63.38;99133.86;434457;1270;145318;-62
2022/08/17 19:53:48;;;;;;;15.10;13.40;;;;;;;24.07;63.99;99137.00;430434;1271;143811;-63
2022/08/17 20:04:14;;;;;;;17.80;13.40;;;;;;;24.01;63.89;99139.70;431087;1271;144534;-62
2022/08/17 20:14:24;;;;;;;14.90;12.50;;;;;;;24.01;63.96;99140.81;431146;1271;143215;-63
2022/08/17 20:24:37;;;;;;;18.70;14.10;;;;;;;23.98;64.43;99138.90;431207;1271;142952;-63
2022/08/17 20:34:47;;;;;;;18.40;14.20;;;;;;;23.93;64.80;99135.39;431204;1271;141412;-63
2022/08/17 20:44:56;;;;;;;15.40;13.70;;;;;;;23.83;64.60;99140.08;431242;1272;142244;-62
2022/08/17 20:55:04;;;;;;;18.40;14.00;;;;;;;23.66;64.82;99135.27;432382;1271;148544;-63
2022/08/17 21:05:26;;;;;;;;;;;;;;;23.50;65.29;99135.08;431168;1272;141430;-63
2022/08/17 21:15:41;;;;;;;14.70;13.30;;;;;;;23.34;65.54;99133.83;431977;1271;127881;-64
2022/08/17 21:26:07;;;;;;;15.50;13.40;;;;;;;23.21;65.89;99137.92;431183;1272;143547;-63
2022/08/17 21:36:28;;;;;;;17.50;13.00;;;;;;;23.07;66.27;99137.48;431366;1271;142190;-64
2022/08/17 21:46:38;;;;;;;15.40;13.80;;;;;;;22.94;66.86;99145.59;431564;1271;142041;-64
2022/08/17 21:56:48;;;;;;;16.00;14.20;;;;;;;22.80;67.20;99142.43;430755;1269;143112;-64
2022/08/17 22:06:55;;;;;;;17.20;13.50;;;;;;;22.66;67.67;99138.03;432114;1271;143147;-67
2022/08/17 22:17:13;;;;;;;15.70;14.20;;;;;;;22.52;68.16;99138.11;431675;1271;143692;-65
2022/08/17 22:27:20;;;;;;;15.10;13.60;;;;;;;22.38;68.76;99127.48;431841;1271;148239;-62
2022/08/17 22:37:30;;;;;;;16.10;14.40;;;;;;;22.25;69.05;99124.02;431354;1271;142757;-62
2022/08/17 22:47:41;;;;;;;17.70;12.90;;;;;;;22.14;69.07;99115.23;431078;1271;142582;-62
2022/08/17 23:08:13;;;;;;;15.80;14.30;;;;;;;21.85;69.77;99097.13;431612;1271;141633;-64
2022/08/17 23:18:19;;;;;;;19.20;15.40;;;;;;;21.72;70.23;99095.39;431243;1271;144089;-63
2022/08/17 23:28:24;;;;;;;16.00;14.30;;;;;;;21.63;70.68;99100.77;431083;1271;147398;-63
2022/08/17 23:38:31;;;;;;;22.40;17.00;;;;;;;21.52;71.04;99110.05;431050;1271;142498;-64
2022/08/17 23:48:38;;;;;;;15.90;14.50;;;;;;;21.37;71.40;99128.15;431595;1271;143230;-62
2022/08/17 23:58:44;;;;;;;16.90;15.40;;;;;;;21.22;71.79;99150.30;432304;1271;141715;-62
